Time;durP1;ratioP1;P1;durP2;ratioP2;P2;SDS_P1;SDS_P2;PMS_P1;PMS_P2;Temp;Humidity;BMP_temperature;BMP_pressure;BME280_temperature;BME280_humidity;BME280_pressure;Samples;Min_cycle;Max_cycle;Signal;HPM_P1;HPM_P2
2022/07/01 04:09:29;;;;;;;7.87;5.65;;;;;;;24.48;74.74;100088.88;6054718;28;20117;-86
2022/07/01 04:12:32;;;;;;;9.65;6.00;;;;;;;24.52;73.35;100090.81;5309217;33;34033;-89
2022/07/01 04:15:37;;;;;;;6.97;5.55;;;;;;;24.60;73.36;100097.66;5308431;33;34381;-89
2022/07/01 04:18:41;;;;;;;8.68;5.28;;;;;;;24.66;73.21;100097.41;5308180;33;33690;-89
2022/07/01 04:25:07;;;;;;;9.18;5.68;;;;;;;24.85;72.95;100089.34;5331877;33;34140;-87
2022/07/01 04:28:09;;;;;;;8.20;5.32;;;;;;;24.96;72.73;100092.91;5326772;33;34115;-87
2022/07/01 04:31:12;;;;;;;7.87;5.97;;;;;;;25.06;72.20;100101.13;5325906;33;34081;-87
2022/07/01 04:34:15;;;;;;;10.95;5.90;;;;;;;25.12;71.83;100090.91;5325867;33;34555;-87
2022/07/01 04:37:18;;;;;;;10.85;6.40;;;;;;;25.24;71.44;100079.59;5325298;33;33466;-86
2022/07/01 04:40:20;;;;;;;12.10;5.62;;;;;;;25.34;71.15;100076.81;5331693;33;33756;-84
2022/07/01 04:43:23;;;;;;;10.43;6.15;;;;;;;25.44;71.02;100071.22;5333897;33;35873;-83
2022/07/01 04:46:25;;;;;;;11.15;6.78;;;;;;;25.57;70.50;100069.81;5332361;33;34423;-83
2022/07/01 04:49:29;;;;;;;9.63;6.80;;;;;;;25.70;69.73;100071.09;5333356;33;34285;-83
2022/07/01 04:52:32;;;;;;;11.12;6.82;;;;;;;25.74;69.60;100061.13;5332779;33;33875;-83
2022/07/01 04:55:37;;;;;;;13.48;6.72;;;;;;;25.81;69.18;100069.91;5332228;33;34219;-81
2022/07/01 04:58:40;;;;;;;8.18;6.12;;;;;;;25.94;68.94;100076.72;5333394;33;34556;-83
2022/07/01 05:01:44;;;;;;;10.85;7.62;;;;;;;26.05;68.76;100067.28;5320277;33;33173;-83
2022/07/01 05:04:47;;;;;;;13.93;6.93;;;;;;;26.13;68.41;100066.66;5320942;33;32557;-83
2022/07/01 05:07:49;;;;;;;10.05;6.85;;;;;;;26.18;69.02;100063.84;5333174;33;33850;-83
2022/07/01 05:10:52;;;;;;;10.88;6.72;;;;;;;26.28;68.64;100067.63;5334487;33;34365;-83
2022/07/01 05:13:55;;;;;;;10.38;6.60;;;;;;;26.43;67.37;100073.00;5334471;33;34491;-83
2022/07/01 05:16:58;;;;;;;11.52;6.50;;;;;;;26.55;66.91;100075.41;5332819;33;34191;-83
2022/07/01 05:23:22;;;;;;;12.10;6.82;;;;;;;26.68;65.54;100083.84;5333768;33;34054;-83
2022/07/01 05:26:25;;;;;;;9.93;6.68;;;;;;;26.84;64.80;100084.47;5323140;33;34207;-83
2022/07/01 05:29:28;;;;;;;14.23;6.95;;;;;;;26.98;64.78;100087.38;5322619;33;32772;-83
2022/07/01 05:32:31;;;;;;;9.75;6.62;;;;;;;27.04;63.59;100093.66;5335514;33;34339;-83
2022/07/01 05:35:34;;;;;;;11.05;7.28;;;;;;;27.04;63.58;100097.25;5336111;33;34320;-84
2022/07/01 05:38:38;;;;;;;10.25;6.90;;;;;;;27.13;63.09;100094.66;5337582;33;35511;-86
2022/07/01 05:41:40;;;;;;;9.73;6.70;;;;;;;27.37;62.74;100092.69;5338315;33;34806;-86
2022/07/01 05:44:43;;;;;;;9.05;5.68;;;;;;;27.51;62.39;100105.81;5316824;33;33541;-88
2022/07/01 05:47:46;;;;;;;11.65;6.53;;;;;;;27.63;61.42;100097.87;5332739;33;33932;-87
2022/07/01 05:50:50;;;;;;;12.00;5.95;;;;;;;27.87;61.13;100106.13;5332376;33;34007;-84
2022/07/01 05:53:53;;;;;;;10.52;6.82;;;;;;;27.89;60.31;100105.84;5305105;33;34261;-83
2022/07/01 05:56:56;;;;;;;10.23;6.25;;;;;;;27.95;59.82;100099.94;5327841;33;34230;-83
2022/07/01 05:59:59;;;;;;;8.00;5.95;;;;;;;28.14;59.97;100101.84;5320078;33;34300;-83
2022/07/01 06:03:02;;;;;;;11.20;6.32;;;;;;;28.29;59.64;100114.63;5319140;33;34798;-83
2022/07/01 06:06:05;;;;;;;7.65;5.47;;;;;;;28.53;59.07;100107.03;5317491;33;34417;-83
2022/07/01 06:09:07;;;;;;;9.02;5.78;;;;;;;28.61;57.83;100114.63;5319756;33;34797;-83
2022/07/01 06:12:14;;;;;;;8.40;5.30;;;;;;;28.76;57.33;100118.25;5326379;33;36166;-83
2022/07/01 06:15:16;;;;;;;7.82;5.22;;;;;;;28.93;55.83;100124.84;5305470;33;32800;-83
2022/07/01 06:18:19;;;;;;;9.85;5.07;;;;;;;29.07;55.32;100121.28;5318824;33;34667;-83
2022/07/01 06:21:22;;;;;;;7.97;5.03;;;;;;;29.24;55.12;100123.44;5320403;33;34301;-83
2022/07/01 06:24:25;;;;;;;8.38;5.25;;;;;;;29.47;53.87;100122.37;5319100;33;34710;-83
2022/07/01 06:27:28;;;;;;;6.87;5.30;;;;;;;29.56;53.53;100128.84;5319124;33;34374;-83
2022/07/01 06:30:31;;;;;;;7.60;4.40;;;;;;;29.67;53.20;100125.88;5305741;33;34440;-83
2022/07/01 06:33:34;;;;;;;10.80;5.12;;;;;;;29.78;52.38;100124.53;5318198;33;33910;-83
2022/07/01 06:36:37;;;;;;;7.68;4.07;;;;;;;29.68;52.03;100125.56;5303960;33;32628;-83
2022/07/01 06:39:40;;;;;;;14.43;5.32;;;;;;;29.75;52.17;100120.41;5329658;33;34499;-83
2022/07/01 06:42:43;;;;;;;7.80;4.65;;;;;;;29.96;51.07;100123.53;5330272;33;34269;-83
2022/07/01 06:45:46;;;;;;;5.28;4.45;;;;;;;30.02;50.75;100121.47;5331029;33;34235;-81
2022/07/01 06:48:49;;;;;;;6.57;4.47;;;;;;;30.05;50.98;100120.81;5329419;33;34661;-82
2022/07/01 06:51:52;;;;;;;9.73;4.20;;;;;;;30.16;51.17;100124.16;5324842;33;33818;-83
2022/07/01 06:54:55;;;;;;;11.70;4.00;;;;;;;30.38;50.74;100129.75;5322877;33;33785;-83
2022/07/01 06:58:00;;;;;;;5.87;4.30;;;;;;;30.59;49.72;100127.25;5327338;33;34463;-83
2022/07/01 07:01:04;;;;;;;8.48;3.87;;;;;;;30.53;48.92;100122.16;5330712;33;33594;-82
2022/07/01 07:04:07;;;;;;;5.30;3.92;;;;;;;30.64;48.90;100123.53;5325952;33;33908;-83
2022/07/01 07:07:10;;;;;;;4.03;3.67;;;;;;;30.84;48.25;100119.44;5324693;33;34058;-83
2022/07/01 07:10:12;;;;;;;6.18;3.75;;;;;;;30.90;48.83;100121.72;5326878;33;33699;-83
2022/07/01 07:13:15;;;;;;;7.32;4.00;;;;;;;30.98;48.24;100113.75;5327252;33;34324;-83
2022/07/01 07:16:21;;;;;;;12.68;3.95;;;;;;;31.20;48.02;100105.31;5304224;33;32985;-83
2022/07/01 07:19:24;;;;;;;10.23;4.35;;;;;;;31.28;47.72;100118.44;5323097;33;34338;-83
2022/07/01 07:22:27;;;;;;;8.15;4.45;;;;;;;31.43;47.79;100108.84;5320867;33;32282;-83
2022/07/01 07:25:30;;;;;;;6.78;4.00;;;;;;;31.54;46.97;100106.59;5327402;33;33854;-83
2022/07/01 07:28:33;;;;;;;7.87;3.72;;;;;;;31.52;47.09;100103.31;5325053;33;34480;-83
2022/07/01 07:31:36;;;;;;;8.30;3.78;;;;;;;31.50;46.74;100103.59;5325448;33;32074;-83
2022/07/01 07:34:39;;;;;;;7.35;3.00;;;;;;;31.75;45.22;100101.19;5330573;33;34036;-83
2022/07/01 07:37:43;;;;;;;4.50;3.20;;;;;;;31.73;45.87;100112.66;5327230;33;33892;-83
2022/07/01 07:40:46;;;;;;;7.45;3.55;;;;;;;31.76;44.69;100109.22;5318226;33;33271;-83
2022/07/01 07:43:49;;;;;;;11.77;3.60;;;;;;;31.69;45.17;100114.47;5313991;33;32710;-83
2022/07/01 07:46:52;;;;;;;8.63;3.78;;;;;;;31.79;44.85;100111.34;5317140;33;34413;-83
2022/07/01 07:49:55;;;;;;;6.40;3.58;;;;;;;31.94;44.34;100110.09;5334053;33;33707;-83
2022/07/01 07:52:58;;;;;;;4.82;3.10;;;;;;;32.06;43.88;100113.03;5332546;33;34809;-83
2022/07/01 07:56:01;;;;;;;5.03;3.08;;;;;;;32.21;43.99;100111.69;5333838;33;33324;-83
2022/07/01 07:59:04;;;;;;;7.93;3.08;;;;;;;32.35;43.10;100114.28;5334430;33;34680;-83
2022/07/01 08:02:07;;;;;;;3.78;2.33;;;;;;;32.48;42.93;100113.31;5334582;33;34547;-86
2022/07/01 08:05:10;;;;;;;3.55;2.22;;;;;;;32.50;41.08;100108.22;5336594;33;34352;-86
2022/07/01 08:08:13;;;;;;;4.93;2.72;;;;;;;32.50;40.58;100116.59;5336811;33;35420;-87
2022/07/01 08:11:17;;;;;;;5.85;2.55;;;;;;;32.63;41.13;100116.72;5336658;33;34960;-86
2022/07/01 08:14:19;;;;;;;5.40;2.55;;;;;;;32.82;40.28;100110.75;5335256;33;34271;-83
2022/07/01 08:17:26;;;;;;;5.00;2.95;;;;;;;32.67;40.08;100124.09;5336353;33;33625;-83
2022/07/01 08:20:29;;;;;;;3.85;2.33;;;;;;;32.76;40.59;100118.47;5322044;33;32435;-83
2022/07/01 08:23:31;;;;;;;8.23;2.90;;;;;;;32.85;39.80;100115.66;5332009;33;33928;-83
2022/07/01 08:26:34;;;;;;;4.68;2.87;;;;;;;32.96;40.27;100117.72;5314876;33;33159;-83
2022/07/01 08:29:37;;;;;;;6.28;2.83;;;;;;;32.88;39.87;100113.03;5332879;33;33809;-83
2022/07/01 08:32:39;;;;;;;6.10;3.17;;;;;;;33.05;40.24;100116.91;5332448;33;34364;-83
2022/07/01 08:35:43;;;;;;;7.93;2.92;;;;;;;33.32;39.29;100115.66;5327724;33;34411;-83
2022/07/01 08:38:48;;;;;;;6.57;3.28;;;;;;;33.23;40.20;100112.06;5317327;33;32730;-83
2022/07/01 08:41:52;;;;;;;4.47;3.20;;;;;;;33.10;39.91;100113.94;5320033;33;32429;-83
2022/07/01 08:44:54;;;;;;;4.20;2.90;;;;;;;33.35;40.04;100115.78;5330517;33;34319;-83
2022/07/01 08:48:02;;;;;;;6.78;3.05;;;;;;;33.49;39.43;100115.50;5334330;33;34495;-83
2022/07/01 08:51:06;;;;;;;3.10;2.75;;;;;;;33.40;39.41;100120.31;5328939;33;34269;-83
2022/07/01 08:54:09;;;;;;;7.55;3.40;;;;;;;33.48;38.15;100113.06;5324854;33;33335;-83
2022/07/01 08:57:19;;;;;;;5.75;3.60;;;;;;;33.66;38.19;100122.16;5330868;33;35157;-83
2022/07/01 09:00:29;;;;;;;4.32;3.05;;;;;;;33.74;38.36;100121.28;5337797;33;33878;-82
2022/07/01 09:03:32;;;;;;;6.45;3.35;;;;;;;33.86;37.73;100118.56;5334098;33;34072;-83
2022/07/01 09:06:36;;;;;;;10.45;3.25;;;;;;;33.71;37.99;100117.19;5317903;33;35311;-83
2022/07/01 09:09:40;;;;;;;7.30;3.10;;;;;;;33.79;38.23;100107.94;5315334;33;33108;-83
2022/07/01 09:12:44;;;;;;;5.68;3.08;;;;;;;33.97;37.72;100108.63;5315407;33;32433;-83
2022/07/01 09:15:46;;;;;;;4.10;3.03;;;;;;;34.02;37.81;100102.81;5324706;33;34094;-83
2022/07/01 09:19:02;;;;;;;7.05;3.00;;;;;;;34.31;36.72;100106.66;5338293;33;34296;-83
2022/07/01 09:22:05;;;;;;;4.97;2.80;;;;;;;34.27;37.21;100102.94;5319005;33;32654;-84
2022/07/01 09:25:14;;;;;;;7.22;2.97;;;;;;;34.21;37.32;100098.72;5327791;33;33894;-83
2022/07/01 09:28:23;;;;;;;6.90;2.78;;;;;;;34.44;37.45;100099.97;5332466;33;35265;-83
2022/07/01 09:31:36;;;;;;;3.92;2.60;;;;;;;34.50;36.40;100100.56;5336514;33;34172;-83
2022/07/01 09:34:44;;;;;;;3.53;2.33;;;;;;;34.74;35.98;100100.63;5320214;33;32714;-83
2022/07/01 09:37:55;;;;;;;4.53;3.03;;;;;;;34.86;35.91;100104.63;5336985;33;33820;-84
2022/07/01 09:41:02;;;;;;;8.52;2.90;;;;;;;35.20;34.72;100092.19;5336721;33;32544;-84
2022/07/01 09:44:07;;;;;;;4.70;2.37;;;;;;;35.47;34.67;100089.81;5334659;33;34135;-84
2022/07/01 09:47:12;;;;;;;2.78;2.30;;;;;;;35.44;33.69;100089.34;5323803;33;35171;-84
2022/07/01 09:50:16;;;;;;;3.33;2.53;;;;;;;35.21;34.27;100091.00;5331942;33;35489;-84
2022/07/01 09:53:19;;;;;;;4.12;2.90;;;;;;;35.59;33.49;100082.22;5329878;33;35141;-84
2022/07/01 09:56:42;;;;;;;5.80;2.67;;;;;;;35.53;33.88;100094.00;5328103;33;32295;-84
2022/07/01 09:59:51;;;;;;;3.95;2.50;;;;;;;35.42;33.86;100085.25;5309330;33;31272;-84
2022/07/01 10:02:56;;;;;;;3.80;2.75;;;;;;;35.57;33.07;100090.19;5324695;33;34794;-85
2022/07/01 10:06:36;;;;;;;4.72;2.92;;;;;;;35.70;32.57;100088.16;5323838;33;34054;-84
2022/07/01 10:10:28;;;;;;;4.70;2.60;;;;;;;35.57;33.09;100078.97;5311704;33;35047;-83
2022/07/01 10:13:34;;;;;;;5.75;2.40;;;;;;;35.74;32.09;100077.84;5315541;33;35686;-83
2022/07/01 10:16:41;;;;;;;5.20;2.87;;;;;;;36.17;31.53;100065.09;5340590;33;34332;-88
2022/07/01 10:19:44;;;;;;;5.32;2.80;;;;;;;36.61;30.57;100065.09;5327791;33;34249;-89
2022/07/01 10:22:46;;;;;;;5.20;2.30;;;;;;;36.90;30.08;100069.44;5324046;33;34443;-89
2022/07/01 10:25:54;;;;;;;3.67;2.67;;;;;;;36.89;29.89;100065.00;5311832;33;33390;-85
2022/07/01 10:28:57;;;;;;;5.22;2.90;;;;;;;36.83;30.18;100060.84;5328020;33;35014;-84
2022/07/01 10:32:29;;;;;;;3.03;2.50;;;;;;;37.07;30.21;100064.66;5322383;33;34058;-86
2022/07/01 10:35:52;;;;;;;4.47;2.47;;;;;;;37.40;29.38;100065.03;5322764;33;35476;-84
2022/07/01 10:39:07;;;;;;;5.40;2.67;;;;;;;37.57;29.58;100055.41;5333896;33;34400;-84
2022/07/01 10:42:10;;;;;;;3.58;2.40;;;;;;;38.11;28.79;100059.31;5333794;33;33634;-87
2022/07/01 10:45:20;;;;;;;5.40;2.40;;;;;;;37.92;28.65;100060.13;5333314;33;33932;-87
2022/07/01 10:48:24;;;;;;;5.00;2.80;;;;;;;38.28;27.43;100060.84;5333976;33;35364;-85
2022/07/01 10:52:05;;;;;;;7.25;3.00;;;;;;;38.96;27.18;100051.66;5334140;33;34264;-86
2022/07/01 10:55:09;;;;;;;4.30;2.30;;;;;;;39.50;26.08;100051.63;5248822;33;34636;-89
2022/07/01 10:58:12;;;;;;;3.70;2.17;;;;;;;39.26;26.56;100052.84;5329712;28;33540;-87
2022/07/01 11:01:17;;;;;;;7.57;2.60;;;;;;;38.91;26.29;100049.16;5314117;33;34416;-87
2022/07/01 11:04:24;;;;;;;6.47;2.85;;;;;;;39.20;25.91;100044.75;5312208;33;33746;-87
2022/07/01 11:07:29;;;;;;;6.03;2.20;;;;;;;39.42;25.33;100034.63;5300731;33;35425;-90
2022/07/01 11:10:32;;;;;;;3.47;2.40;;;;;;;39.68;24.52;100038.56;5302575;33;34878;-90
2022/07/01 11:13:35;;;;;;;4.18;2.12;;;;;;;39.79;24.70;100039.56;5310718;33;35160;-90
2022/07/01 11:16:41;;;;;;;3.47;2.03;;;;;;;39.52;24.84;100041.59;5305997;33;34825;-86
2022/07/01 11:19:52;;;;;;;3.20;1.92;;;;;;;38.90;25.16;100043.87;5310739;33;32424;-86
2022/07/01 11:23:20;;;;;;;2.95;1.73;;;;;;;39.41;24.69;100026.56;5294152;33;35388;-86
2022/07/01 11:26:24;;;;;;;2.97;2.17;;;;;;;39.29;24.33;100027.56;5292907;33;33277;-86
2022/07/01 11:29:28;;;;;;;6.60;2.35;;;;;;;38.56;25.59;100027.63;5311490;33;35524;-87
2022/07/01 11:32:34;;;;;;;3.58;2.10;;;;;;;39.66;24.19;100021.22;5296430;33;31952;-86
2022/07/01 11:42:21;;;;;;;3.12;2.08;;;;;;;42.40;20.89;100003.78;5304004;33;35388;-86
2022/07/01 11:45:25;;;;;;;3.40;2.30;;;;;;;41.30;21.61;99996.53;5301925;33;34453;-86
2022/07/01 11:48:42;;;;;;;6.18;2.35;;;;;;;41.68;21.45;100000.78;5317119;33;34773;-86
2022/07/01 11:51:54;;;;;;;2.78;2.30;;;;;;;43.27;20.46;99999.66;5324527;33;36771;-85
2022/07/01 11:54:57;;;;;;;2.85;2.35;;;;;;;43.51;20.09;99999.97;5306202;33;35300;-85
2022/07/01 11:58:20;;;;;;;4.62;2.62;;;;;;;41.81;21.25;100006.06;5292371;33;33002;-89
2022/07/01 12:01:34;;;;;;;3.55;1.87;;;;;;;41.85;21.86;100001.22;5302976;33;33539;-86
2022/07/01 12:04:39;;;;;;;7.18;2.20;;;;;;;43.90;19.04;99989.25;5294798;33;33826;-86
2022/07/01 12:07:49;;;;;;;5.25;2.20;;;;;;;43.69;19.07;99990.19;5301710;33;34748;-85
2022/07/01 12:10:53;;;;;;;3.62;2.15;;;;;;;44.26;19.35;99979.69;5299303;33;33993;-85
2022/07/01 12:14:01;;;;;;;3.92;2.53;;;;;;;45.40;18.27;99981.44;5293076;33;32560;-86
2022/07/01 12:17:08;;;;;;;2.42;1.92;;;;;;;46.04;16.81;99976.91;5302557;33;33944;-85
2022/07/01 12:20:11;;;;;;;3.47;2.12;;;;;;;45.17;17.34;99967.94;5286522;33;32504;-86
2022/07/01 12:23:16;;;;;;;3.25;1.90;;;;;;;46.19;16.43;99960.44;5303710;33;35812;-86
2022/07/01 12:26:18;;;;;;;2.62;2.30;;;;;;;47.13;15.84;99966.09;5307186;33;34387;-86
2022/07/01 12:29:23;;;;;;;3.15;1.98;;;;;;;48.03;14.91;99959.22;5305762;33;34682;-86
2022/07/01 12:32:28;;;;;;;5.87;2.12;;;;;;;48.24;14.32;99957.13;5299911;33;34840;-86
2022/07/01 12:35:40;;;;;;;4.12;2.10;;;;;;;48.79;13.70;99952.41;5304839;33;34129;-86
2022/07/01 12:38:43;;;;;;;2.25;2.00;;;;;;;48.74;13.82;99945.22;5280830;33;32221;-86
2022/07/01 12:41:53;;;;;;;4.43;2.00;;;;;;;48.82;13.83;99945.78;5283291;33;31878;-87
2022/07/01 12:45:02;;;;;;;2.20;2.00;;;;;;;49.06;13.20;99945.56;5297453;33;32868;-86
2022/07/01 12:48:05;;;;;;;2.58;1.73;;;;;;;49.23;13.04;99945.09;5314146;33;34871;-87
2022/07/01 12:51:14;;;;;;;2.75;1.80;;;;;;;48.80;12.96;99934.03;5309055;33;33559;-86
2022/07/01 12:54:32;;;;;;;4.45;2.00;;;;;;;49.65;12.61;99927.06;5307366;33;34297;-87
2022/07/01 12:57:35;;;;;;;3.03;2.05;;;;;;;50.19;12.66;99919.56;5301357;33;34756;-87
2022/07/01 13:00:44;;;;;;;4.22;2.05;;;;;;;50.39;12.24;99927.91;5292632;33;34809;-87
2022/07/01 13:03:48;;;;;;;3.15;1.70;;;;;;;50.90;12.04;99913.38;5294204;33;34479;-87
2022/07/01 13:06:52;;;;;;;4.40;1.90;;;;;;;49.72;13.06;99906.78;5291698;33;145343;-87
2022/07/01 13:09:55;;;;;;;7.90;1.98;;;;;;;48.00;13.70;99907.94;5292795;33;32442;-87
2022/07/01 13:12:58;;;;;;;7.10;2.25;;;;;;;46.85;14.90;99909.66;5294673;33;35480;-87
2022/07/01 13:16:01;;;;;;;3.50;1.90;;;;;;;47.97;14.12;99905.97;5313575;33;34231;-90
2022/07/01 13:19:04;;;;;;;3.55;2.17;;;;;;;48.39;14.22;99903.31;5308529;33;34275;-91
2022/07/01 13:22:07;;;;;;;2.78;1.90;;;;;;;49.13;13.30;99899.59;5305515;33;34813;-91
2022/07/01 13:25:10;;;;;;;3.08;2.15;;;;;;;49.04;13.36;99891.69;5290406;33;33345;-88
2022/07/01 13:28:13;;;;;;;2.83;2.15;;;;;;;50.27;12.55;99890.25;5303105;33;34146;-88
2022/07/01 13:31:16;;;;;;;2.97;2.10;;;;;;;48.86;13.09;99889.38;5306274;33;34425;-89
2022/07/01 13:34:19;;;;;;;4.18;2.28;;;;;;;47.41;14.08;99893.41;5300314;33;34185;-87
2022/07/01 13:37:22;;;;;;;4.90;1.98;;;;;;;48.75;12.61;99895.34;5336626;33;34184;-87
2022/07/01 13:40:25;;;;;;;4.80;2.30;;;;;;;48.14;12.75;99890.47;5328837;33;35399;-87
2022/07/01 13:43:32;;;;;;;4.57;1.98;;;;;;;48.41;12.86;99886.50;5315898;33;34091;-87
2022/07/01 13:46:38;;;;;;;3.65;2.20;;;;;;;49.15;12.28;99889.31;5320671;33;34322;-87
2022/07/01 13:49:48;;;;;;;4.37;2.22;;;;;;;49.12;12.30;99884.50;5320969;33;35422;-87
2022/07/01 13:52:53;;;;;;;6.97;2.73;;;;;;;49.57;12.09;99883.56;5291687;33;33715;-87
2022/07/01 13:55:58;;;;;;;2.67;1.90;;;;;;;49.83;11.82;99881.47;5290784;33;32456;-87
2022/07/01 13:59:01;;;;;;;3.58;2.50;;;;;;;46.93;13.83;99876.94;5281131;33;33153;-87
2022/07/01 14:02:05;;;;;;;3.62;2.20;;;;;;;44.31;16.19;99874.22;5312788;33;34330;-88
2022/07/01 14:05:09;;;;;;;3.97;2.08;;;;;;;44.92;15.67;99879.31;5321532;33;34196;-87
2022/07/01 14:08:12;;;;;;;4.45;2.45;;;;;;;44.88;15.99;99881.41;5301357;33;32952;-86
2022/07/01 14:11:15;;;;;;;4.28;2.30;;;;;;;44.06;16.19;99869.63;5307591;33;33643;-85
2022/07/01 14:14:18;;;;;;;3.42;2.35;;;;;;;43.01;17.64;99874.25;5287060;33;32749;-85
2022/07/01 14:17:23;;;;;;;5.15;2.45;;;;;;;42.41;17.94;99880.06;5303327;33;34282;-85
2022/07/01 14:20:26;;;;;;;4.53;2.50;;;;;;;41.14;19.20;99874.62;5300503;33;35051;-85
2022/07/01 14:23:30;;;;;;;5.07;2.60;;;;;;;41.05;19.58;99877.81;5308979;33;33866;-85
2022/07/01 14:26:34;;;;;;;3.92;2.20;;;;;;;41.51;19.03;99874.34;5295779;33;34152;-85
2022/07/01 14:29:37;;;;;;;3.20;2.42;;;;;;;41.16;19.63;99869.38;5291168;33;34014;-86
2022/07/01 14:32:39;;;;;;;5.55;2.53;;;;;;;40.63;20.14;99867.06;5294304;33;33707;-85
2022/07/01 14:35:43;;;;;;;4.80;2.75;;;;;;;40.04;20.48;99864.19;5298846;33;34042;-85
2022/07/01 14:38:45;;;;;;;3.30;2.10;;;;;;;39.79;20.42;99861.97;5291412;33;34865;-85
2022/07/01 14:41:49;;;;;;;8.23;2.53;;;;;;;39.56;20.82;99861.31;5308735;33;34917;-85
2022/07/01 14:44:58;;;;;;;5.28;2.45;;;;;;;39.39;21.27;99851.47;5296111;33;32901;-85
2022/07/01 14:48:00;;;;;;;4.80;2.70;;;;;;;38.94;20.99;99854.16;5308905;33;34847;-85
2022/07/01 14:51:03;;;;;;;3.62;2.42;;;;;;;38.37;21.20;99856.09;5323349;33;34014;-85
2022/07/01 14:54:06;;;;;;;2.87;2.22;;;;;;;38.07;21.54;99854.03;5313170;33;34989;-85
2022/07/01 14:57:09;;;;;;;4.80;2.20;;;;;;;37.94;22.11;99858.25;5286522;33;34226;-86
2022/07/01 15:00:12;;;;;;;3.50;2.55;;;;;;;37.97;22.26;99867.91;5278426;33;32127;-85
2022/07/01 15:03:15;;;;;;;5.93;2.50;;;;;;;37.79;22.54;99876.00;5283703;33;32830;-85
2022/07/01 15:06:18;;;;;;;3.22;2.45;;;;;;;37.60;22.87;99872.06;5305900;33;34237;-85
2022/07/01 15:09:21;;;;;;;5.30;2.65;;;;;;;37.50;23.54;99863.44;5302285;33;34932;-84
2022/07/01 15:12:25;;;;;;;3.85;2.90;;;;;;;37.14;23.77;99869.13;5287874;33;33480;-85
2022/07/01 15:15:28;;;;;;;5.97;2.90;;;;;;;37.01;24.25;99880.91;5292625;33;34035;-85
2022/07/01 15:18:32;;;;;;;7.20;2.42;;;;;;;37.18;24.36;99864.41;5293510;33;35012;-89
2022/07/01 15:21:35;;;;;;;4.45;2.70;;;;;;;37.23;24.23;99866.91;5291012;33;34578;-88
2022/07/01 15:24:38;;;;;;;5.82;2.87;;;;;;;37.18;23.99;99858.00;5291273;33;35286;-88
2022/07/01 15:27:42;;;;;;;6.32;2.83;;;;;;;37.16;24.12;99854.75;5289957;33;33660;-86
2022/07/01 15:30:47;;;;;;;8.55;2.80;;;;;;;36.98;24.40;99846.72;5277373;33;32780;-86
2022/07/01 15:33:49;;;;;;;6.25;2.33;;;;;;;36.98;24.07;99857.16;5290119;33;33746;-85
2022/07/01 15:36:55;;;;;;;2.80;2.50;;;;;;;36.87;24.40;99856.91;5278080;33;33144;-86
2022/07/01 15:39:59;;;;;;;3.37;2.37;;;;;;;36.86;23.83;99857.28;5289900;33;34254;-86
2022/07/01 15:43:06;;;;;;;;;;;;;;;36.73;24.69;99853.81;5290246;33;34583;-86
2022/07/01 15:46:09;;;;;;;7.37;2.90;;;;;;;36.85;24.26;99850.84;5289973;33;33759;-86
2022/07/01 15:49:11;;;;;;;5.93;3.10;;;;;;;36.90;24.87;99853.38;5301423;33;33756;-85
2022/07/01 15:52:14;;;;;;;3.78;2.78;;;;;;;36.87;25.31;99854.09;5299867;33;34091;-86
2022/07/01 15:55:17;;;;;;;4.93;3.30;;;;;;;36.75;25.21;99851.44;5289511;33;34186;-86
